Terminal Aerodrome Forecast
Issued by NWS Midland/Odessa, TX

Home | Current Version | Previous Version | Text Only | Print | Product List | Glossary On
Versions: 1 2 3 4 5 6 7 8 9 10 11 12 13
000
FTUS44 KMAF 291700
TAFMAF
TAF
KMAF 291740Z 2918/3018 31008KT P6SM SKC
     FM292100 33013G20KT P6SM FEW250
     FM300000 03012KT P6SM SCT250
     FM300800 07008KT P6SM SCT250
     FM301400 12009KT P6SM BKN250=

USA.gov is the U.S. government's official web portal to all federal, state and local government web resources and services.